Time;durP1;ratioP1;P1;durP2;ratioP2;P2;SDS_P1;SDS_P2;PMS_P1;PMS_P2;Temp;Humidity;BMP_temperature;BMP_pressure;BME280_temperature;BME280_humidity;BME280_pressure;Samples;Min_cycle;Max_cycle;Signal;HPM_P1;HPM_P2
2023/03/22 00:01:45;;;;;;;64.70;36.30;;;;;;;18.42;59.59;99077.58;267790;1268;24382;-77
2023/03/22 00:07:49;;;;;;;59.60;32.60;;;;;;;18.13;59.85;99065.97;267725;1261;24378;-74
2023/03/22 00:13:51;;;;;;;66.10;36.40;;;;;;;17.66;60.89;99065.25;268029;1257;22698;-73
2023/03/22 00:19:53;;;;;;;66.30;36.20;;;;;;;17.75;60.61;99063.48;268628;1262;25418;-74
2023/03/22 00:25:56;;;;;;;66.60;36.40;;;;;;;17.42;61.24;99061.46;266802;1268;24201;-74
2023/03/22 00:31:57;;;;;;;68.30;37.50;;;;;;;17.47;62.02;99055.27;272169;1261;22626;-72
2023/03/22 00:38:12;;;;;;;61.00;33.70;;;;;;;17.32;61.74;99048.23;267915;1269;22549;-75
2023/03/22 00:44:14;;;;;;;65.40;36.20;;;;;;;17.40;62.13;99049.61;267923;1257;22649;-75
2023/03/22 00:50:19;;;;;;;61.90;34.40;;;;;;;17.21;61.05;99054.55;266910;1269;22550;-75
2023/03/22 00:56:24;;;;;;;62.20;34.60;;;;;;;17.12;61.31;99052.35;267087;1268;25293;-74
2023/03/22 01:02:33;;;;;;;72.10;39.20;;;;;;;17.03;60.78;99047.84;266897;1270;22524;-74
2023/03/22 01:08:37;;;;;;;63.80;33.60;;;;;;;16.81;61.17;99043.88;267179;1268;22596;-76
2023/03/22 01:14:39;;;;;;;51.20;29.50;;;;;;;16.64;60.55;99038.88;267162;1269;25329;-75
2023/03/22 01:20:41;;;;;;;53.50;29.60;;;;;;;16.63;60.67;99028.30;266985;1252;22520;-75
2023/03/22 01:26:45;;;;;;;79.70;43.70;;;;;;;16.62;61.38;99024.39;266860;1267;24370;-73
2023/03/22 01:32:47;;;;;;;67.70;35.80;;;;;;;16.49;62.47;99015.10;267119;1252;25347;-75
2023/03/22 01:38:49;;;;;;;65.00;35.90;;;;;;;16.54;61.52;99009.73;266917;1267;25236;-73
2023/03/22 01:45:26;;;;;;;55.50;30.80;;;;;;;16.44;60.57;98995.79;267510;1268;22614;-78
2023/03/22 01:51:28;;;;;;;69.20;37.20;;;;;;;16.09;61.90;98992.10;266970;1266;22662;-75
2023/03/22 01:57:53;;;;;;;67.40;34.70;;;;;;;16.00;61.34;98978.86;267309;1264;24222;-80
2023/03/22 02:04:32;;;;;;;54.10;30.10;;;;;;;16.10;60.19;98968.86;266770;1259;23136;-72
2023/03/22 02:10:35;;;;;;;49.00;27.90;;;;;;;16.29;59.38;98964.09;269319;1266;22569;-73
2023/03/22 02:16:50;;;;;;;63.80;34.00;;;;;;;16.25;58.86;98960.23;268276;1269;24152;-73
2023/03/22 02:23:04;;;;;;;56.10;30.00;;;;;;;15.93;59.02;98954.54;267786;1269;24166;-74
2023/03/22 02:29:34;;;;;;;60.90;31.10;;;;;;;15.67;59.30;98950.86;267358;1267;24212;-73
2023/03/22 02:35:52;;;;;;;60.30;31.50;;;;;;;15.21;61.01;98948.14;267462;1267;22675;-77
2023/03/22 02:42:13;;;;;;;61.10;32.50;;;;;;;15.18;61.41;98945.09;267339;1274;25379;-77
2023/03/22 02:48:17;;;;;;;57.90;31.30;;;;;;;14.94;62.22;98946.16;267018;1269;25284;-76
2023/03/22 02:54:44;;;;;;;49.80;26.90;;;;;;;15.01;61.75;98945.39;267252;1255;24210;-81
2023/03/22 03:00:49;;;;;;;45.50;26.30;;;;;;;14.90;59.48;98936.72;267029;1270;22906;-76
2023/03/22 03:06:57;;;;;;;52.90;27.50;;;;;;;15.04;59.32;98939.73;267015;1268;22524;-78
2023/03/22 03:12:59;;;;;;;46.00;26.50;;;;;;;14.69;60.29;98939.75;266877;1271;23936;-77
2023/03/22 03:19:15;;;;;;;47.30;25.00;;;;;;;14.63;59.84;98945.25;266946;1266;22534;-76
2023/03/22 03:26:03;;;;;;;39.80;22.50;;;;;;;14.46;59.92;98946.42;267375;1267;22537;-77
2023/03/22 03:32:18;;;;;;;33.90;20.80;;;;;;;14.13;59.83;98952.33;265941;1276;24206;-76
2023/03/22 03:38:25;;;;;;;32.80;20.20;;;;;;;14.20;59.12;98954.98;265583;1278;22550;-78
2023/03/22 03:44:32;;;;;;;;;;;;;;;14.27;59.11;98945.94;266184;1281;22556;-81
2023/03/22 03:50:42;;;;;;;36.50;21.60;;;;;;;14.55;58.31;98951.58;266346;1277;22582;-77
2023/03/22 03:56:46;;;;;;;42.30;23.30;;;;;;;14.63;59.43;98949.41;265513;1264;22564;-77
2023/03/22 04:02:48;;;;;;;51.20;22.90;;;;;;;14.63;60.73;98951.73;265674;1277;23894;-79
2023/03/22 04:09:12;;;;;;;44.00;23.60;;;;;;;14.87;62.90;98961.48;267546;1262;22523;-76
2023/03/22 04:15:17;;;;;;;42.70;22.30;;;;;;;15.18;63.76;98961.88;267710;1269;24501;-74
2023/03/22 04:21:21;;;;;;;40.70;21.70;;;;;;;14.94;63.42;98965.11;266794;1267;24166;-74
2023/03/22 04:27:34;;;;;;;42.10;22.40;;;;;;;15.08;64.82;98962.27;267078;1267;24180;-73
2023/03/22 04:33:45;;;;;;;42.50;23.20;;;;;;;15.21;63.47;98964.48;267175;1259;22555;-73
2023/03/22 04:39:59;;;;;;;52.60;24.30;;;;;;;15.19;63.36;98966.59;267020;1262;25237;-74
2023/03/22 04:46:11;;;;;;;61.60;27.00;;;;;;;15.39;65.11;98971.94;266792;1269;25513;-74
2023/03/22 04:52:18;;;;;;;53.50;26.00;;;;;;;15.41;65.05;98974.70;266579;1271;22691;-75
2023/03/22 04:58:26;;;;;;;43.70;24.70;;;;;;;15.55;65.39;98982.52;267199;1267;22546;-75
2023/03/22 05:04:28;;;;;;;41.00;22.80;;;;;;;15.48;64.84;98987.05;266639;1273;22526;-76
2023/03/22 05:10:39;;;;;;;35.80;21.80;;;;;;;15.19;64.44;98986.59;266704;1268;24001;-75
2023/03/22 05:16:41;;;;;;;35.70;21.70;;;;;;;15.46;64.14;98985.52;267098;1269;25236;-76
2023/03/22 05:22:44;;;;;;;38.00;22.20;;;;;;;15.58;63.92;98992.83;266825;1259;22534;-74
2023/03/22 05:28:46;;;;;;;43.20;22.50;;;;;;;15.70;64.12;98990.42;266872;1269;25227;-75
2023/03/22 05:34:55;;;;;;;41.70;22.90;;;;;;;15.52;64.20;98985.27;266901;1262;25345;-76
2023/03/22 05:41:02;;;;;;;38.30;22.90;;;;;;;15.83;63.71;98989.83;266668;1269;25240;-76
2023/03/22 05:47:05;;;;;;;35.90;22.40;;;;;;;15.98;63.26;98988.13;267148;1267;22996;-73
2023/03/22 05:53:10;;;;;;;35.80;22.00;;;;;;;16.23;62.88;98983.77;266905;1266;24867;-75
2023/03/22 05:59:33;;;;;;;38.10;22.20;;;;;;;16.58;61.36;98984.88;266867;1267;22543;-76
2023/03/22 06:05:36;;;;;;;37.10;22.80;;;;;;;16.65;60.53;98989.15;267128;1266;26642;-74
2023/03/22 06:11:38;;;;;;;36.10;22.80;;;;;;;16.96;59.32;98988.86;266734;1259;22646;-73
2023/03/22 06:17:41;;;;;;;33.40;21.70;;;;;;;17.20;58.83;98987.02;266911;1266;24649;-74
2023/03/22 06:23:44;;;;;;;32.60;21.20;;;;;;;17.52;57.85;98994.34;267041;1266;24457;-72
2023/03/22 06:29:49;;;;;;;33.50;22.00;;;;;;;17.52;58.06;98996.15;266638;1265;22542;-74
2023/03/22 06:35:53;;;;;;;30.00;20.50;;;;;;;17.89;57.39;98994.21;266806;1259;22523;-73
2023/03/22 06:42:02;;;;;;;34.00;22.40;;;;;;;17.64;57.90;98996.96;268170;1268;27605;-73
2023/03/22 06:48:04;;;;;;;38.50;24.20;;;;;;;17.65;58.29;98989.99;268014;1269;24426;-73
2023/03/22 06:54:12;;;;;;;35.00;22.40;;;;;;;17.81;58.58;98982.02;269433;1262;22436;-71
2023/03/22 07:00:14;;;;;;;41.30;23.80;;;;;;;17.37;59.34;98982.66;267577;1259;22530;-72
2023/03/22 07:06:16;;;;;;;37.90;22.50;;;;;;;17.52;59.24;98986.64;267006;1269;23345;-75
2023/03/22 07:12:21;;;;;;;36.20;22.20;;;;;;;18.08;58.15;98986.61;267922;1262;23237;-73
2023/03/22 07:18:24;;;;;;;34.90;21.70;;;;;;;18.14;57.95;98987.35;270666;1273;23284;-73
2023/03/22 07:24:25;;;;;;;41.00;23.60;;;;;;;18.04;57.58;98987.34;267115;1269;23312;-77
2023/03/22 07:30:27;;;;;;;40.20;23.20;;;;;;;18.49;56.94;98997.88;267013;1273;24227;-73
2023/03/22 07:36:30;;;;;;;45.60;24.70;;;;;;;18.41;57.19;98991.77;266954;1268;22579;-75
2023/03/22 07:42:33;;;;;;;42.90;24.30;;;;;;;18.59;57.41;98990.55;266690;1268;25328;-74
2023/03/22 07:48:57;;;;;;;45.40;24.80;;;;;;;18.66;57.06;98984.39;266823;1269;22530;-74
2023/03/22 07:55:17;;;;;;;38.90;22.70;;;;;;;19.32;56.48;98980.89;266972;1269;78830;-73
2023/03/22 08:01:20;;;;;;;36.80;22.60;;;;;;;19.54;55.50;98976.38;266770;1268;22533;-72
2023/03/22 08:07:36;;;;;;;32.50;21.00;;;;;;;20.17;54.54;98977.06;266935;1271;25477;-72
2023/03/22 08:13:38;;;;;;;33.00;19.80;;;;;;;20.76;53.50;98976.76;266928;1272;22546;-72
2023/03/22 08:19:42;;;;;;;32.20;19.80;;;;;;;21.00;53.05;98974.38;266775;1269;22524;-73
2023/03/22 08:25:45;;;;;;;36.40;21.30;;;;;;;21.58;52.24;98965.80;266837;1258;22579;-74
2023/03/22 08:31:47;;;;;;;28.80;18.80;;;;;;;22.03;51.53;98965.52;267026;1270;25239;-74
2023/03/22 08:37:53;;;;;;;26.90;17.20;;;;;;;22.15;51.05;98955.80;267748;1269;22712;-72
2023/03/22 08:43:56;;;;;;;26.40;17.80;;;;;;;22.12;50.77;98955.33;267889;1262;23227;-73
2023/03/22 08:49:57;;;;;;;26.60;17.80;;;;;;;22.37;50.17;98957.73;269785;1259;25344;-73
2023/03/22 08:56:08;;;;;;;29.20;18.70;;;;;;;22.74;50.41;98955.60;267812;1256;24222;-73
2023/03/22 09:02:25;;;;;;;31.00;17.50;;;;;;;22.77;49.82;98956.35;267246;1272;22881;-73
2023/03/22 09:08:28;;;;;;;26.50;16.20;;;;;;;23.32;48.45;98953.78;267616;1263;22927;-72
2023/03/22 09:14:37;;;;;;;31.70;18.10;;;;;;;22.55;49.42;98946.81;266991;1261;22612;-72
2023/03/22 09:20:39;;;;;;;31.70;17.90;;;;;;;22.51;49.81;98942.38;267141;1267;24160;-72
2023/03/22 09:26:42;;;;;;;31.30;18.40;;;;;;;22.21;50.50;98937.30;269418;1266;25359;-73
2023/03/22 09:32:44;;;;;;;37.60;18.20;;;;;;;21.71;51.46;98925.09;267498;1269;22561;-72
2023/03/22 09:38:48;;;;;;;30.50;18.60;;;;;;;22.58;50.53;98919.66;267127;1266;24101;-73
2023/03/22 09:44:51;;;;;;;31.20;19.80;;;;;;;23.10;49.58;98919.77;267224;1267;24214;-74
2023/03/22 09:50:56;;;;;;;35.10;20.60;;;;;;;23.31;49.31;98910.30;266948;1272;22625;-71
2023/03/22 09:57:01;;;;;;;33.80;19.70;;;;;;;23.62;48.76;98907.20;267230;1266;22618;-72
2023/03/22 10:03:28;;;;;;;30.10;17.90;;;;;;;23.94;48.46;98898.84;267407;1269;22773;-72
2023/03/22 10:09:48;;;;;;;27.70;16.80;;;;;;;24.26;48.01;98890.45;266979;1272;22535;-73
2023/03/22 10:15:54;;;;;;;27.20;17.30;;;;;;;24.76;47.15;98890.55;267282;1267;24365;-72
2023/03/22 10:21:57;;;;;;;26.00;16.70;;;;;;;24.95;46.62;98883.37;267372;1274;22530;-73
2023/03/22 10:27:58;;;;;;;25.60;17.00;;;;;;;24.70;46.79;98882.92;267285;1269;25294;-73
2023/03/22 10:34:04;;;;;;;26.20;15.80;;;;;;;25.01;46.45;98878.92;267001;1271;26486;-73
2023/03/22 10:40:34;;;;;;;24.40;15.60;;;;;;;25.20;45.71;98866.28;267495;1269;22576;-73
2023/03/22 10:46:38;;;;;;;24.00;14.70;;;;;;;25.07;45.65;98860.66;266931;1266;26561;-73
2023/03/22 10:52:46;;;;;;;23.00;13.20;;;;;;;25.22;45.41;98861.09;267824;1259;23022;-72
2023/03/22 10:58:49;;;;;;;20.90;13.40;;;;;;;25.93;43.87;98851.67;267702;1258;24180;-73
2023/03/22 11:04:53;;;;;;;20.10;13.20;;;;;;;26.14;44.09;98845.64;267357;1265;23291;-72
2023/03/22 11:10:59;;;;;;;21.90;12.70;;;;;;;26.34;43.68;98838.72;267761;1267;26512;-73
2023/03/22 11:17:14;;;;;;;14.30;9.60;;;;;;;26.45;43.59;98832.15;267267;1272;22572;-73
2023/03/22 11:23:16;;;;;;;15.10;10.30;;;;;;;25.98;42.99;98825.48;267560;1272;22550;-73
2023/03/22 11:29:18;;;;;;;14.50;10.10;;;;;;;26.98;41.85;98815.69;267729;1270;23269;-73
2023/03/22 11:35:25;;;;;;;12.30;8.70;;;;;;;27.14;41.16;98823.85;268190;1269;23034;-73
2023/03/22 11:41:47;;;;;;;10.50;7.90;;;;;;;27.43;40.24;98811.35;267638;1267;25353;-74
2023/03/22 11:47:50;;;;;;;11.90;7.30;;;;;;;27.52;39.89;98804.44;268705;1271;24191;-74
2023/03/22 11:53:55;;;;;;;13.20;7.30;;;;;;;27.56;39.81;98800.85;267108;1270;24836;-74
2023/03/22 12:00:18;;;;;;;10.90;7.60;;;;;;;27.67;39.35;98797.00;267413;1272;23266;-74
2023/03/22 12:06:27;;;;;;;7.90;6.00;;;;;;;27.86;39.38;98787.30;266830;1264;23213;-73
2023/03/22 12:12:35;;;;;;;8.40;5.80;;;;;;;27.89;39.24;98783.45;269365;1271;22590;-72
2023/03/22 12:18:43;;;;;;;8.00;5.70;;;;;;;27.44;39.79;98778.21;267629;1272;22702;-72
2023/03/22 12:24:45;;;;;;;8.20;5.70;;;;;;;26.85;40.05;98775.95;267529;1272;22568;-72
2023/03/22 12:30:50;;;;;;;10.20;6.10;;;;;;;26.63;40.49;98771.11;267325;1269;22538;-73
2023/03/22 12:36:55;;;;;;;9.50;5.80;;;;;;;26.47;41.03;98766.92;267105;1269;24928;-72
2023/03/22 12:43:20;;;;;;;11.90;5.40;;;;;;;26.41;41.18;98757.98;267067;1263;24280;-72
2023/03/22 12:49:28;;;;;;;8.60;5.60;;;;;;;25.90;41.36;98747.80;267287;1272;24250;-72
2023/03/22 12:55:32;;;;;;;7.90;5.80;;;;;;;25.57;41.57;98749.11;266964;1269;22533;-71
2023/03/22 13:01:58;;;;;;;7.60;5.00;;;;;;;25.68;41.53;98742.52;267011;1272;22572;-73
2023/03/22 13:08:04;;;;;;;6.70;4.30;;;;;;;26.00;41.41;98742.86;267771;1272;25267;-72
2023/03/22 13:14:06;;;;;;;5.80;3.80;;;;;;;26.16;41.51;98738.06;268736;1267;23903;-72
2023/03/22 13:20:11;;;;;;;6.80;4.40;;;;;;;25.77;41.43;98734.48;270104;1264;24228;-72
2023/03/22 13:26:14;;;;;;;5.00;3.90;;;;;;;25.82;41.67;98728.98;267466;1271;22533;-72
2023/03/22 13:32:50;;;;;;;7.20;4.70;;;;;;;25.57;41.67;98723.34;268255;1267;24593;-72
2023/03/22 13:39:04;;;;;;;5.00;3.20;;;;;;;25.71;41.06;98714.36;267993;1269;26102;-72
2023/03/22 13:45:32;;;;;;;7.00;4.50;;;;;;;25.95;40.90;98707.54;268703;1256;22517;-71
2023/03/22 13:51:34;;;;;;;5.80;3.10;;;;;;;25.37;41.21;98700.82;268458;1272;22607;-71
2023/03/22 13:57:57;;;;;;;3.90;3.00;;;;;;;25.68;40.52;98697.25;269387;1272;22530;-74
2023/03/22 14:04:02;;;;;;;5.60;3.70;;;;;;;25.82;40.44;98688.13;268530;1272;25281;-71
2023/03/22 14:10:44;;;;;;;5.80;3.30;;;;;;;25.77;40.45;98673.35;272555;1251;22218;-71
2023/03/22 14:16:48;;;;;;;4.50;3.40;;;;;;;25.77;40.31;98668.46;267473;1266;22986;-71
2023/03/22 14:22:54;;;;;;;5.90;3.30;;;;;;;25.80;40.55;98663.23;267283;1270;22525;-73
2023/03/22 14:29:15;;;;;;;4.30;2.80;;;;;;;25.54;40.58;98661.23;267535;1270;22534;-71
2023/03/22 14:35:25;;;;;;;3.90;2.80;;;;;;;25.53;40.41;98663.80;267802;1267;23205;-72
2023/03/22 14:41:26;;;;;;;3.60;2.50;;;;;;;25.58;40.00;98666.35;267434;1267;22556;-74
2023/03/22 14:47:33;;;;;;;6.30;3.10;;;;;;;25.10;40.64;98663.88;267524;1263;22621;-74
2023/03/22 14:53:36;;;;;;;6.20;3.30;;;;;;;25.15;40.59;98657.55;267756;1269;22534;-76
2023/03/22 14:59:38;;;;;;;5.80;3.00;;;;;;;25.08;40.88;98653.60;267183;1270;24272;-73
2023/03/22 15:05:41;;;;;;;5.50;3.70;;;;;;;25.14;40.87;98651.75;267674;1269;22623;-77
2023/03/22 15:11:43;;;;;;;5.20;3.30;;;;;;;24.84;41.28;98646.61;267906;1267;24097;-73
2023/03/22 15:17:45;;;;;;;4.60;3.40;;;;;;;24.92;41.35;98648.23;267471;1270;24263;-73
2023/03/22 15:23:54;;;;;;;11.10;3.80;;;;;;;24.81;42.15;98649.48;268448;1266;24206;-73
2023/03/22 15:29:57;;;;;;;4.90;3.50;;;;;;;25.03;41.73;98648.01;268580;1267;26454;-73
2023/03/22 15:35:59;;;;;;;5.40;3.20;;;;;;;25.00;41.48;98648.29;267678;1270;25535;-73
2023/03/22 15:42:12;;;;;;;6.30;3.20;;;;;;;24.88;41.44;98637.17;268021;1258;22362;-72
2023/03/22 15:48:19;;;;;;;4.60;3.40;;;;;;;25.06;41.35;98629.80;268549;1264;22880;-74
2023/03/22 15:54:25;;;;;;;6.20;3.60;;;;;;;25.11;41.53;98629.59;267902;1263;22875;-72
2023/03/22 16:00:36;;;;;;;;;;;;;;;25.01;41.45;98627.71;267415;1267;22527;-72
2023/03/22 16:06:38;;;;;;;5.60;3.40;;;;;;;25.02;41.79;98622.59;268300;1267;25421;-72
2023/03/22 16:12:39;;;;;;;6.90;3.90;;;;;;;25.21;41.53;98624.18;270229;1267;22454;-73
2023/03/22 16:18:40;;;;;;;3.90;2.90;;;;;;;25.04;41.80;98634.92;270569;1273;22615;-72
2023/03/22 16:24:46;;;;;;;4.80;2.90;;;;;;;24.82;41.82;98635.30;268708;1266;22554;-72
2023/03/22 16:30:49;;;;;;;5.80;3.10;;;;;;;24.54;42.29;98633.80;267129;1267;24250;-72
2023/03/22 16:36:54;;;;;;;4.30;3.00;;;;;;;24.30;42.60;98630.36;267321;1270;22898;-72
2023/03/22 16:42:57;;;;;;;6.30;2.90;;;;;;;24.11;42.91;98636.95;268621;1269;23813;-73
2023/03/22 16:48:58;;;;;;;4.70;2.90;;;;;;;23.92;43.18;98638.60;267532;1267;22580;-72
2023/03/22 16:54:59;;;;;;;4.60;3.00;;;;;;;23.66;43.75;98640.67;267828;1267;22691;-72
2023/03/22 17:01:00;;;;;;;4.10;3.10;;;;;;;23.45;44.10;98643.42;267257;1267;23041;-73
2023/03/22 17:07:01;;;;;;;4.90;2.80;;;;;;;23.13;44.55;98644.14;267016;1269;22516;-73
2023/03/22 17:13:03;;;;;;;7.10;3.20;;;;;;;22.81;44.91;98650.73;267481;1267;25607;-73
2023/03/22 17:19:05;;;;;;;7.20;3.00;;;;;;;22.58;45.74;98655.17;267476;1266;24269;-72
2023/03/22 17:25:12;;;;;;;6.00;3.40;;;;;;;22.49;46.25;98655.28;266997;1262;25334;-72
2023/03/22 17:31:14;;;;;;;5.30;3.20;;;;;;;22.26;46.72;98655.77;267149;1268;25522;-72
2023/03/22 17:37:16;;;;;;;7.50;2.80;;;;;;;22.11;47.06;98653.19;267270;1266;24152;-73
2023/03/22 17:43:18;;;;;;;6.10;3.00;;;;;;;22.02;47.31;98653.10;267555;1266;26571;-72
2023/03/22 17:49:19;;;;;;;8.80;4.20;;;;;;;21.60;47.77;98651.14;267513;1267;23872;-72
2023/03/22 17:55:23;;;;;;;6.60;3.20;;;;;;;21.71;47.88;98653.61;267298;1270;22530;-72
2023/03/22 18:01:24;;;;;;;9.00;4.10;;;;;;;21.57;48.18;98659.38;268010;1259;22533;-73
2023/03/22 18:07:26;;;;;;;7.30;4.60;;;;;;;21.49;48.14;98667.60;266818;1255;24189;-74
2023/03/22 18:13:27;;;;;;;9.40;5.00;;;;;;;21.39;48.02;98672.23;267336;1262;24437;-72
2023/03/22 18:19:30;;;;;;;8.00;4.10;;;;;;;21.19;48.74;98672.79;267652;1267;22657;-71
2023/03/22 18:25:31;;;;;;;9.20;4.70;;;;;;;21.09;48.93;98673.36;267028;1268;22531;-72
2023/03/22 18:31:33;;;;;;;13.90;6.30;;;;;;;20.74;49.32;98674.83;266992;1268;23818;-72
2023/03/22 18:37:36;;;;;;;16.00;7.20;;;;;;;20.67;49.28;98671.16;267440;1267;22524;-72
2023/03/22 18:43:39;;;;;;;13.20;7.30;;;;;;;20.47;49.83;98665.54;267338;1267;22537;-72
2023/03/22 18:49:40;;;;;;;14.30;7.10;;;;;;;20.28;50.20;98664.67;267066;1266;25777;-76
2023/03/22 18:55:41;;;;;;;15.00;7.70;;;;;;;20.20;50.37;98671.10;267233;1267;22613;-76
2023/03/22 19:01:43;;;;;;;16.70;8.20;;;;;;;20.06;50.59;98671.33;268023;1267;24077;-80
2023/03/22 19:07:44;;;;;;;14.70;9.00;;;;;;;20.14;50.43;98672.59;267769;1266;25504;-74
2023/03/22 19:13:45;;;;;;;16.80;9.30;;;;;;;20.26;50.19;98667.88;266976;1270;22555;-74
2023/03/22 19:19:46;;;;;;;17.70;9.00;;;;;;;20.39;50.01;98674.98;267477;1268;22628;-73
2023/03/22 19:25:48;;;;;;;18.80;9.20;;;;;;;20.26;50.25;98673.62;268081;1269;22758;-76
2023/03/22 19:31:50;;;;;;;14.00;9.30;;;;;;;20.30;50.57;98673.37;268862;1268;24227;-87
2023/03/22 19:37:52;;;;;;;20.50;9.40;;;;;;;20.26;50.59;98674.94;268258;1269;25233;-75
2023/03/22 19:43:53;;;;;;;17.30;9.00;;;;;;;20.24;50.54;98681.91;267151;1267;22558;-76
2023/03/22 19:49:54;;;;;;;19.40;10.00;;;;;;;20.22;50.70;98678.39;267826;1272;22541;-73
2023/03/22 19:55:56;;;;;;;18.90;9.30;;;;;;;20.28;50.48;98677.02;267432;1267;117212;-74
2023/03/22 20:01:57;;;;;;;16.10;9.00;;;;;;;20.25;50.59;98680.96;267092;1265;23380;-78
2023/03/22 20:07:59;;;;;;;18.10;10.50;;;;;;;20.22;50.48;98680.73;268499;1267;22528;-81
2023/03/22 20:14:04;;;;;;;18.60;9.80;;;;;;;20.28;50.06;98683.57;268212;1268;22564;-79
2023/03/22 20:20:08;;;;;;;18.20;10.00;;;;;;;20.27;50.20;98679.29;268114;1267;22546;-74
2023/03/22 20:26:09;;;;;;;17.20;10.40;;;;;;;20.27;50.14;98676.17;267640;1267;22996;-76
2023/03/22 20:32:10;;;;;;;15.40;9.10;;;;;;;20.20;50.08;98677.55;267333;1267;22526;-81
2023/03/22 20:38:12;;;;;;;17.60;9.50;;;;;;;20.21;50.06;98676.62;268135;1270;22561;-77
2023/03/22 20:44:13;;;;;;;18.10;10.20;;;;;;;20.22;49.90;98674.64;267577;1267;22549;-72
2023/03/22 20:50:15;;;;;;;18.30;9.70;;;;;;;20.24;49.72;98674.98;268742;1267;23919;-72
2023/03/22 20:56:16;;;;;;;19.20;9.50;;;;;;;20.25;49.60;98672.98;269471;1266;22586;-72
2023/03/22 21:02:17;;;;;;;17.80;10.00;;;;;;;20.35;49.47;98675.13;268959;1267;23121;-71
2023/03/22 21:08:19;;;;;;;18.30;9.40;;;;;;;20.34;49.42;98667.95;267351;1270;22546;-72
2023/03/22 21:14:21;;;;;;;16.80;10.20;;;;;;;20.40;49.26;98669.62;267918;1256;22520;-72
2023/03/22 21:20:23;;;;;;;17.90;9.30;;;;;;;20.30;49.50;98668.55;268531;1266;24350;-72
2023/03/22 21:26:26;;;;;;;15.00;9.00;;;;;;;19.82;50.63;98670.78;268614;1266;23900;-72
2023/03/22 21:32:28;;;;;;;17.00;9.80;;;;;;;19.57;51.25;98678.05;267354;1268;25280;-71
2023/03/22 21:38:36;;;;;;;17.80;10.00;;;;;;;19.43;51.43;98682.50;267268;1267;22540;-74
2023/03/22 21:44:38;;;;;;;15.50;10.00;;;;;;;19.22;51.95;98687.08;267396;1255;22517;-73
2023/03/22 21:50:43;;;;;;;18.20;10.20;;;;;;;19.04;52.33;98683.36;267725;1270;24450;-72
2023/03/22 21:56:44;;;;;;;16.40;9.30;;;;;;;18.80;52.67;98683.16;268106;1269;25471;-73
2023/03/22 22:02:49;;;;;;;15.00;8.70;;;;;;;18.86;52.56;98683.90;267284;1264;22540;-73
2023/03/22 22:08:50;;;;;;;16.20;10.00;;;;;;;18.77;52.55;98683.80;267875;1266;25253;-72
2023/03/22 22:14:51;;;;;;;17.50;9.40;;;;;;;18.59;52.88;98687.30;267583;1262;22790;-73
2023/03/22 22:20:55;;;;;;;17.70;9.30;;;;;;;18.57;53.24;98687.67;267000;1262;22526;-73
2023/03/22 22:26:56;;;;;;;20.10;10.20;;;;;;;18.51;53.04;98691.90;268282;1266;22606;-73
2023/03/22 22:32:58;;;;;;;16.50;9.30;;;;;;;18.43;53.39;98694.45;267321;1259;22550;-72
2023/03/22 22:39:03;;;;;;;16.80;9.20;;;;;;;18.46;53.52;98691.91;267523;1265;22539;-72
2023/03/22 22:45:05;;;;;;;14.60;8.80;;;;;;;18.38;53.24;98685.52;266934;1266;23380;-72
2023/03/22 22:51:09;;;;;;;14.30;8.60;;;;;;;18.23;53.46;98678.32;268230;1268;24232;-72
2023/03/22 22:57:10;;;;;;;14.80;8.90;;;;;;;18.05;53.76;98674.91;270319;1270;25491;-73
2023/03/22 23:03:11;;;;;;;16.10;8.30;;;;;;;18.07;53.50;98669.84;269848;1266;22891;-74
2023/03/22 23:09:19;;;;;;;16.60;8.30;;;;;;;17.96;53.58;98664.56;268901;1257;24209;-73
2023/03/22 23:15:21;;;;;;;12.70;7.30;;;;;;;17.77;53.58;98660.36;269972;1269;22578;-73
2023/03/22 23:21:28;;;;;;;12.20;7.50;;;;;;;17.64;54.11;98662.66;268124;1269;24863;-73
2023/03/22 23:27:31;;;;;;;12.40;7.30;;;;;;;17.48;54.33;98663.79;267390;1269;22549;-73
2023/03/22 23:33:36;;;;;;;14.10;7.40;;;;;;;17.56;54.01;98662.46;266967;1268;22619;-72
2023/03/22 23:39:37;;;;;;;14.70;7.70;;;;;;;17.62;53.93;98665.13;267607;1268;22546;-73
2023/03/22 23:45:40;;;;;;;14.30;8.30;;;;;;;17.51;54.20;98665.50;267644;1252;25443;-74
2023/03/22 23:51:42;;;;;;;13.10;8.30;;;;;;;17.46;54.45;98665.27;268274;1268;24227;-73
2023/03/22 23:57:43;;;;;;;13.30;7.70;;;;;;;17.39;54.41;98662.35;267500;1269;25389;-73
